createdAt,value
2023-01-29T00:00:24.716Z,1.00
2023-01-29T00:03:31.703Z,1.25
2023-01-29T00:06:06.594Z,1.92
2023-01-29T00:08:54.749Z,2.58
2023-01-29T00:11:28.850Z,1.40
2023-01-29T00:14:16.704Z,2.50
2023-01-29T00:16:50.876Z,1.30
2023-01-29T00:19:37.711Z,1.30
2023-01-29T00:22:18.834Z,1.85
2023-01-29T00:24:58.696Z,1.27
2023-01-29T00:27:46.697Z,1.10
2023-01-29T00:30:21.328Z,2.33
2023-01-29T00:33:08.713Z,1.83
2023-01-29T00:35:49.718Z,1.95
2023-01-29T00:38:30.858Z,2.38
2023-01-29T00:41:33.706Z,1.25
2023-01-29T00:44:39.697Z,1.60
2023-01-29T00:47:45.702Z,2.60
2023-01-29T00:50:26.770Z,2.17
2023-01-29T00:53:07.684Z,1.63
2023-01-29T00:55:48.806Z,0.93
2023-01-29T00:58:34.728Z,1.67
2023-01-29T01:01:22.743Z,1.60
2023-01-29T01:04:02.708Z,1.42
2023-01-29T01:06:56.687Z,1.38
2023-01-29T01:09:49.410Z,1.95
2023-01-29T01:12:36.690Z,1.10
2023-01-29T01:15:11.236Z,1.30
2023-01-29T01:17:58.723Z,2.08
2023-01-29T01:20:35.483Z,1.63
2023-01-29T01:23:22.734Z,2.92
2023-01-29T01:26:02.772Z,2.05
2023-01-29T01:28:50.725Z,1.30
2023-01-29T01:31:31.734Z,2.00
2023-01-29T01:34:19.701Z,1.58
2023-01-29T01:37:02.716Z,2.70
2023-01-29T01:39:50.723Z,1.58
2023-01-29T01:42:30.641Z,1.63
2023-01-29T01:45:20.691Z,1.13
2023-01-29T01:48:03.733Z,1.63
2023-01-29T01:50:47.762Z,1.42
2023-01-29T01:53:56.717Z,1.65
2023-01-29T01:56:40.581Z,2.05
2023-01-29T01:59:23.730Z,1.77
2023-01-29T02:02:23.675Z,1.00
2023-01-29T02:05:22.679Z,1.98
2023-01-29T02:08:22.667Z,2.05
2023-01-29T02:11:03.709Z,3.20
2023-01-29T02:13:44.807Z,1.95
2023-01-29T02:16:24.778Z,1.23
2023-01-29T02:19:05.971Z,3.58
2023-01-29T02:21:45.724Z,1.60
2023-01-29T02:24:44.816Z,1.63
2023-01-29T02:27:28.737Z,0.73
2023-01-29T02:30:09.754Z,3.35
2023-01-29T02:33:15.728Z,2.92
2023-01-29T02:36:05.861Z,2.60
2023-01-29T02:38:57.733Z,1.73
2023-01-29T02:41:34.978Z,2.30
2023-01-29T02:47:15.703Z,2.83
2023-01-29T02:50:33.700Z,3.38
2023-01-29T02:53:22.728Z,3.72
2023-01-29T02:56:13.698Z,3.03
2023-01-29T02:59:14.721Z,3.78
2023-01-29T03:04:43.743Z,2.78
2023-01-29T03:07:48.691Z,2.60
2023-01-29T03:10:39.679Z,3.78
2023-01-29T03:13:51.745Z,4.82
2023-01-29T03:17:11.698Z,4.53
2023-01-29T03:19:58.709Z,2.67
2023-01-29T03:22:33.784Z,3.17
2023-01-29T03:25:40.740Z,3.20
2023-01-29T03:28:43.725Z,4.72
2023-01-29T03:31:51.725Z,3.30
2023-01-29T03:34:36.970Z,3.50
2023-01-29T03:37:52.719Z,4.32
2023-01-29T03:40:26.791Z,4.50
2023-01-29T03:43:29.733Z,3.58
2023-01-29T03:46:03.839Z,5.90
2023-01-29T03:49:00.688Z,3.75
2023-01-29T03:51:49.699Z,5.60
2023-01-29T03:54:59.725Z,4.30
2023-01-29T03:58:18.695Z,5.75
2023-01-29T04:01:11.761Z,5.72
2023-01-29T04:03:54.741Z,4.65
2023-01-29T04:06:51.742Z,5.97
2023-01-29T04:09:41.720Z,4.65
2023-01-29T04:12:17.785Z,4.97
2023-01-29T04:15:07.714Z,5.70
2023-01-29T04:17:44.794Z,4.63
2023-01-29T04:20:32.680Z,4.38
2023-01-29T04:23:13.723Z,4.88
2023-01-29T04:26:13.720Z,2.83
2023-01-29T04:28:53.779Z,3.28
2023-01-29T04:31:46.749Z,3.80
2023-01-29T04:34:26.833Z,4.82
2023-01-29T04:37:22.717Z,5.60
2023-01-29T04:40:02.935Z,4.72
2023-01-29T04:42:55.703Z,4.65
2023-01-29T04:45:42.743Z,5.43
2023-01-29T04:48:40.771Z,4.45
2023-01-29T04:51:54.700Z,5.07
2023-01-29T04:54:29.179Z,4.07
2023-01-29T04:57:15.732Z,5.60
2023-01-29T04:59:54.835Z,4.43
2023-01-29T05:02:45.803Z,5.22
2023-01-29T05:05:20.828Z,3.67
2023-01-29T05:08:08.710Z,4.28
2023-01-29T05:10:49.725Z,5.40
2023-01-29T05:13:39.634Z,3.78
2023-01-29T05:16:28.809Z,4.20
2023-01-29T05:19:08.722Z,4.93
2023-01-29T05:21:58.745Z,5.72
2023-01-29T05:24:38.699Z,2.83
2023-01-29T05:27:43.321Z,3.08
2023-01-29T05:30:23.720Z,4.40
2023-01-29T05:33:04.828Z,2.35
2023-01-29T05:35:52.740Z,5.00
2023-01-29T05:38:27.770Z,4.70
2023-01-29T05:41:15.711Z,2.70
2023-01-29T05:43:56.736Z,4.03
2023-01-29T05:46:51.756Z,5.72
2023-01-29T05:49:38.877Z,4.07
2023-01-29T05:52:12.762Z,2.75
2023-01-29T05:54:59.745Z,4.05
2023-01-29T05:57:33.773Z,4.10
2023-01-29T06:00:21.714Z,4.93
2023-01-29T06:03:02.773Z,1.92
2023-01-29T06:05:56.713Z,4.68
2023-01-29T06:08:44.698Z,3.38
2023-01-29T06:11:27.726Z,5.32
2023-01-29T06:14:21.702Z,3.83
2023-01-29T06:17:08.724Z,2.97
2023-01-29T06:19:42.807Z,4.57
2023-01-29T06:22:29.703Z,3.55
2023-01-29T06:25:03.791Z,2.78
2023-01-29T06:27:50.753Z,1.95
2023-01-29T06:30:24.838Z,2.88
2023-01-29T06:33:11.757Z,1.63
2023-01-29T06:35:45.780Z,2.35
2023-01-29T06:38:33.686Z,3.25
2023-01-29T06:41:14.707Z,4.40
2023-01-29T06:44:08.713Z,4.28
2023-01-29T06:46:55.698Z,3.05
2023-01-29T06:49:29.773Z,2.70
2023-01-29T06:52:17.724Z,3.10
2023-01-29T06:54:51.777Z,2.10
2023-01-29T06:57:38.728Z,3.13
2023-01-29T07:00:20.429Z,3.78
2023-01-29T07:03:00.734Z,3.10
2023-01-29T07:05:41.876Z,4.07
2023-01-29T07:08:21.699Z,3.88
2023-01-29T07:11:06.830Z,3.00
2023-01-29T07:13:46.739Z,3.65
2023-01-29T07:16:34.764Z,3.45
2023-01-29T07:19:08.671Z,3.17
2023-01-29T07:21:56.702Z,3.30
2023-01-29T07:24:30.790Z,3.78
2023-01-29T07:27:18.734Z,4.07
2023-01-29T07:29:58.698Z,3.28
2023-01-29T07:32:46.752Z,2.85
2023-01-29T07:35:20.702Z,4.65
2023-01-29T07:38:08.788Z,4.85
2023-01-29T07:40:49.707Z,4.05
2023-01-29T07:43:37.702Z,4.78
2023-01-29T07:46:11.835Z,4.45
2023-01-29T07:48:59.699Z,4.70
2023-01-29T07:51:39.740Z,4.78
2023-01-29T07:54:20.798Z,5.35
2023-01-29T07:57:07.738Z,5.57
2023-01-29T07:59:48.735Z,4.07
2023-01-29T08:02:42.691Z,5.20
2023-01-29T08:05:29.717Z,4.88
2023-01-29T08:08:10.706Z,4.40
2023-01-29T08:10:58.752Z,3.55
2023-01-29T08:13:32.809Z,5.07
2023-01-29T08:16:19.761Z,4.68
2023-01-29T08:19:00.752Z,5.88
2023-01-29T08:21:54.695Z,4.45
2023-01-29T08:24:53.625Z,3.08
2023-01-29T08:27:33.948Z,4.85
2023-01-29T08:30:21.753Z,4.13
2023-01-29T08:32:55.838Z,3.00
2023-01-29T08:35:43.713Z,5.55
2023-01-29T08:38:17.864Z,4.07
2023-01-29T08:41:04.717Z,3.33
2023-01-29T08:43:52.711Z,4.72
2023-01-29T08:46:26.705Z,4.50
2023-01-29T08:49:14.720Z,4.80
2023-01-29T08:51:48.705Z,5.13
2023-01-29T08:54:36.694Z,4.53
2023-01-29T08:57:16.748Z,3.65
2023-01-29T09:00:04.744Z,5.95
2023-01-29T09:02:38.881Z,4.30
2023-01-29T09:05:26.732Z,4.30
2023-01-29T09:08:07.699Z,4.43
2023-01-29T09:10:55.740Z,4.43
2023-01-29T09:13:29.818Z,4.25
2023-01-29T09:16:17.788Z,2.72
2023-01-29T09:18:58.708Z,5.18
2023-01-29T09:21:46.700Z,5.63
2023-01-29T09:24:26.749Z,4.78
2023-01-29T09:27:07.904Z,6.05
2023-01-29T09:29:47.742Z,7.07
2023-01-29T09:32:52.715Z,4.88
2023-01-29T09:35:31.765Z,4.10
2023-01-29T09:38:12.816Z,3.97
2023-01-29T09:41:15.696Z,4.20
2023-01-29T09:43:58.889Z,4.47
2023-01-29T09:46:49.749Z,3.80
2023-01-29T09:49:31.538Z,3.25
2023-01-29T09:52:23.719Z,4.95
2023-01-29T09:55:35.362Z,4.00
2023-01-29T09:58:21.726Z,5.22
2023-01-29T10:01:32.758Z,5.07
2023-01-29T10:04:25.568Z,4.20
2023-01-29T10:07:29.728Z,5.68
2023-01-29T10:10:42.737Z,4.63
2023-01-29T10:13:56.700Z,5.00
2023-01-29T10:17:01.792Z,4.68
2023-01-29T10:20:02.738Z,3.97
2023-01-29T10:22:58.754Z,4.05
2023-01-29T10:25:32.906Z,2.90
2023-01-29T10:28:23.719Z,2.80
2023-01-29T10:31:15.856Z,3.20
2023-01-29T10:34:01.571Z,3.33
2023-01-29T10:36:50.721Z,2.67
2023-01-29T10:39:26.688Z,1.83
2023-01-29T10:42:28.718Z,2.60
2023-01-29T10:45:21.728Z,3.05
2023-01-29T10:48:08.814Z,2.88
2023-01-29T10:50:57.707Z,1.80
2023-01-29T10:53:53.722Z,1.95
2023-01-29T10:56:33.238Z,2.42
2023-01-29T10:59:38.736Z,2.67
2023-01-29T11:02:28.808Z,2.10
2023-01-29T11:05:10.311Z,2.92
2023-01-29T11:07:49.722Z,3.58
2023-01-29T11:10:30.877Z,2.47
2023-01-29T11:13:12.756Z,3.75
2023-01-29T11:15:53.789Z,3.40
2023-01-29T11:18:33.738Z,3.55
2023-01-29T11:21:15.205Z,3.22
2023-01-29T11:23:54.706Z,3.67
2023-01-29T11:26:42.788Z,2.80
2023-01-29T11:29:55.756Z,3.05
2023-01-29T11:32:29.815Z,3.10
2023-01-29T11:35:16.748Z,3.08
2023-01-29T11:37:51.785Z,3.30
2023-01-29T11:40:43.751Z,2.78
2023-01-29T11:43:29.656Z,2.28
2023-01-29T11:46:21.803Z,2.90
2023-01-29T11:48:59.403Z,4.43
2023-01-29T11:51:58.792Z,3.17
2023-01-29T11:54:37.876Z,3.03
2023-01-29T11:57:35.741Z,3.47
2023-01-29T12:00:11.800Z,3.72
2023-01-29T12:03:08.719Z,3.17
2023-01-29T12:05:42.854Z,3.42
2023-01-29T12:08:30.784Z,2.88
2023-01-29T12:11:14.797Z,2.33
2023-01-29T12:14:03.742Z,5.30
2023-01-29T12:16:44.800Z,2.47
2023-01-29T12:20:01.761Z,3.30
2023-01-29T12:23:17.744Z,2.95
2023-01-29T12:26:27.803Z,3.30
2023-01-29T12:29:30.745Z,3.63
2023-01-29T12:32:15.723Z,3.55
2023-01-29T12:35:30.702Z,2.80
2023-01-29T12:38:17.726Z,2.70
2023-01-29T12:40:55.228Z,2.15
2023-01-29T12:46:39.805Z,3.78
2023-01-29T12:49:37.736Z,2.55
2023-01-29T12:52:28.718Z,1.35
2023-01-29T12:55:05.793Z,2.58
2023-01-29T12:58:00.723Z,2.35
2023-01-29T13:00:46.852Z,1.95
2023-01-29T13:03:47.774Z,2.40
2023-01-29T13:06:40.780Z,2.47
2023-01-29T13:09:19.882Z,2.95
2023-01-29T13:12:09.749Z,3.28
2023-01-29T13:14:56.752Z,2.00
2023-01-29T13:17:46.722Z,2.55
2023-01-29T13:20:36.750Z,3.33
2023-01-29T13:23:35.732Z,2.60
2023-01-29T13:26:27.751Z,3.35
2023-01-29T13:29:08.730Z,3.20
2023-01-29T13:32:03.787Z,3.85
2023-01-29T13:34:52.727Z,3.42
2023-01-29T13:37:30.880Z,2.97
2023-01-29T13:40:26.772Z,2.50
2023-01-29T13:43:08.724Z,3.15
2023-01-29T13:46:03.722Z,3.53
2023-01-29T13:48:53.778Z,2.83
2023-01-29T13:51:28.858Z,3.92
2023-01-29T13:54:23.743Z,2.75
2023-01-29T13:57:12.739Z,2.10
2023-01-29T14:00:01.746Z,3.38
2023-01-29T14:02:43.793Z,3.83
2023-01-29T14:05:36.722Z,3.53
2023-01-29T14:08:33.860Z,3.38
2023-01-29T14:11:23.757Z,3.80
2023-01-29T14:13:57.833Z,3.35
2023-01-29T14:16:45.824Z,4.45
2023-01-29T14:19:25.823Z,3.63
2023-01-29T14:22:13.759Z,3.83
2023-01-29T14:24:54.829Z,2.60
2023-01-29T14:27:35.757Z,3.70
2023-01-29T14:30:16.799Z,2.33
2023-01-29T14:32:58.892Z,3.60
2023-01-29T14:35:39.825Z,3.28
2023-01-29T14:38:21.715Z,2.10
2023-01-29T14:41:15.485Z,3.30
2023-01-29T14:43:55.752Z,3.45
2023-01-29T14:46:41.849Z,2.88
2023-01-29T14:49:42.740Z,3.63
2023-01-29T14:52:23.828Z,3.08
2023-01-29T14:55:06.784Z,4.72
2023-01-29T14:57:47.790Z,4.72
2023-01-29T15:00:31.777Z,5.28
2023-01-29T15:03:19.800Z,4.40
2023-01-29T15:06:01.725Z,3.13
2023-01-29T15:08:47.907Z,4.10
2023-01-29T15:11:41.728Z,2.67
2023-01-29T15:14:24.949Z,2.42
2023-01-29T15:17:07.726Z,3.30
2023-01-29T15:19:59.795Z,2.63
2023-01-29T15:22:42.828Z,5.10
2023-01-29T15:25:30.721Z,3.90
2023-01-29T15:28:10.119Z,4.85
2023-01-29T15:30:57.909Z,5.20
2023-01-29T15:33:39.808Z,4.05
2023-01-29T15:36:25.808Z,4.93
2023-01-29T15:39:25.794Z,5.50
2023-01-29T15:42:25.642Z,3.45
2023-01-29T15:45:06.711Z,5.00
2023-01-29T15:47:47.813Z,5.82
2023-01-29T15:50:28.781Z,4.28
2023-01-29T15:53:10.851Z,3.92
2023-01-29T15:55:51.737Z,5.22
2023-01-29T15:58:37.779Z,6.10
2023-01-29T16:01:18.804Z,5.75
2023-01-29T16:04:02.439Z,6.70
2023-01-29T16:06:45.755Z,5.88
2023-01-29T16:09:41.745Z,5.43
2023-01-29T16:12:29.780Z,5.63
2023-01-29T16:15:10.736Z,5.43
2023-01-29T16:17:58.839Z,5.68
2023-01-29T16:20:46.797Z,4.75
2023-01-29T16:23:25.302Z,5.85
2023-01-29T16:26:15.779Z,3.50
2023-01-29T16:28:55.726Z,3.38
2023-01-29T16:31:45.869Z,5.13
2023-01-29T16:34:35.749Z,3.17
2023-01-29T16:37:25.861Z,3.80
2023-01-29T16:42:35.855Z,4.47
2023-01-29T16:45:52.876Z,4.53
2023-01-29T16:48:48.721Z,6.03
2023-01-29T16:51:37.782Z,5.40
2023-01-29T16:54:28.723Z,4.25
2023-01-29T16:57:34.715Z,5.55
2023-01-29T17:00:27.787Z,5.07
2023-01-29T17:03:03.014Z,5.88
2023-01-29T17:05:50.792Z,6.40
2023-01-29T17:08:29.870Z,4.18
2023-01-29T17:11:17.741Z,5.07
2023-01-29T17:14:10.842Z,5.55
2023-01-29T17:16:52.076Z,5.90
2023-01-29T17:19:39.824Z,5.95
2023-01-29T17:22:16.799Z,4.63
2023-01-29T17:25:04.796Z,5.10
2023-01-29T17:27:41.052Z,6.00
2023-01-29T17:30:32.868Z,5.70
2023-01-29T17:33:11.938Z,6.00
2023-01-29T17:35:59.883Z,7.70
2023-01-29T17:38:39.915Z,6.95
2023-01-29T17:41:40.888Z,4.85
2023-01-29T17:44:20.746Z,4.93
2023-01-29T17:47:08.731Z,6.15
2023-01-29T17:49:43.475Z,6.43
2023-01-29T17:52:30.849Z,6.47
2023-01-29T17:55:24.807Z,6.47
2023-01-29T17:58:11.837Z,7.28
2023-01-29T18:00:45.953Z,6.93
2023-01-29T18:03:33.971Z,7.05
2023-01-29T18:06:07.980Z,6.43
2023-01-29T18:08:55.808Z,5.40
2023-01-29T18:11:30.074Z,7.28
2023-01-29T18:14:18.732Z,6.57
2023-01-29T18:16:59.735Z,7.85
2023-01-29T18:19:53.980Z,7.93
2023-01-29T18:22:40.749Z,8.32
2023-01-29T18:25:15.153Z,7.57
2023-01-29T18:28:01.740Z,8.38
2023-01-29T18:30:36.164Z,7.80
2023-01-29T18:33:23.721Z,10.57
2023-01-29T18:35:58.550Z,8.85
2023-01-29T18:38:44.808Z,6.97
2023-01-29T18:41:19.039Z,7.43
2023-01-29T18:44:05.947Z,7.80
2023-01-29T18:46:39.859Z,6.93
2023-01-29T18:49:26.750Z,6.90
2023-01-29T18:52:00.840Z,4.07
2023-01-29T18:54:47.929Z,7.70
2023-01-29T18:58:28.484Z,5.57
2023-01-29T19:00:35.877Z,5.78
2023-01-29T19:03:09.981Z,6.38
2023-01-29T19:05:56.733Z,7.80
2023-01-29T19:08:37.769Z,6.13
2023-01-29T19:11:24.936Z,5.38
2023-01-29T19:13:59.032Z,4.93
2023-01-29T19:16:46.777Z,5.20
2023-01-29T19:19:27.949Z,4.65
2023-01-29T19:22:15.937Z,4.47
2023-01-29T19:24:49.897Z,4.65
2023-01-29T19:27:37.939Z,6.10
2023-01-29T19:30:12.880Z,5.55
2023-01-29T19:33:00.885Z,5.80
2023-01-29T19:35:34.963Z,6.55
2023-01-29T19:38:27.911Z,4.90
2023-01-29T19:41:02.033Z,6.07
2023-01-29T19:43:49.792Z,4.65
2023-01-29T19:46:23.928Z,4.88
2023-01-29T19:49:12.828Z,5.65
2023-01-29T19:51:53.932Z,7.80
2023-01-29T19:54:48.879Z,3.25
2023-01-29T19:57:36.736Z,6.60
2023-01-29T20:00:12.227Z,3.65
2023-01-29T20:02:58.743Z,6.45
2023-01-29T20:05:32.808Z,6.50
2023-01-29T20:08:19.768Z,5.55
2023-01-29T20:11:03.731Z,4.80
2023-01-29T20:13:53.757Z,4.82
2023-01-29T20:16:34.821Z,3.55
2023-01-29T20:19:28.919Z,5.28
2023-01-29T20:22:09.941Z,5.68
2023-01-29T20:25:04.847Z,5.65
2023-01-29T20:27:52.860Z,4.72
2023-01-29T20:30:26.852Z,7.80
2023-01-29T20:33:14.754Z,5.72
2023-01-29T20:36:00.854Z,6.90
2023-01-29T20:38:41.747Z,5.82
2023-01-29T20:41:30.760Z,6.10
2023-01-29T20:44:10.737Z,5.68
2023-01-29T20:47:01.426Z,7.20
2023-01-29T20:49:35.916Z,7.78
2023-01-29T20:52:23.926Z,7.95
2023-01-29T20:55:03.756Z,8.15
2023-01-29T20:58:05.373Z,6.40
2023-01-29T21:00:41.497Z,6.55
2023-01-29T21:03:28.754Z,6.65
2023-01-29T21:06:02.827Z,5.22
2023-01-29T21:08:50.742Z,5.72
2023-01-29T21:11:24.807Z,6.90
2023-01-29T21:14:12.822Z,6.85
2023-01-29T21:16:46.809Z,3.97
2023-01-29T21:19:34.748Z,6.78
2023-01-29T21:22:08.718Z,7.82
2023-01-29T21:24:56.746Z,6.18
2023-01-29T21:27:50.872Z,7.30
2023-01-29T21:30:38.806Z,6.32
2023-01-29T21:33:12.844Z,7.13
2023-01-29T21:36:06.877Z,9.35
2023-01-29T21:38:40.927Z,6.88
2023-01-29T21:41:47.799Z,7.20
2023-01-29T21:44:28.759Z,7.47
2023-01-29T21:47:18.754Z,6.63
2023-01-29T21:49:59.723Z,8.38
2023-01-29T21:52:46.754Z,8.32
2023-01-29T21:55:20.851Z,8.38
2023-01-29T21:58:08.778Z,6.65
2023-01-29T22:00:42.832Z,8.55
2023-01-29T22:03:30.734Z,10.63
2023-01-29T22:06:04.874Z,10.05
2023-01-29T22:08:51.764Z,9.48
2023-01-29T22:11:25.831Z,9.27
2023-01-29T22:14:12.740Z,8.57
2023-01-29T22:16:46.893Z,7.03
2023-01-29T22:19:35.751Z,8.00
2023-01-29T22:22:10.114Z,9.00
2023-01-29T22:24:58.771Z,8.68
2023-01-29T22:27:39.805Z,7.95
2023-01-29T22:30:33.842Z,9.35
2023-01-29T22:33:21.750Z,7.63
2023-01-29T22:36:00.834Z,9.43
2023-01-29T22:38:50.788Z,6.07
2023-01-29T22:41:24.896Z,7.30
2023-01-29T22:44:12.793Z,9.48
2023-01-29T22:46:53.783Z,7.70
2023-01-29T22:49:47.754Z,7.70
2023-01-29T22:52:44.742Z,8.57
2023-01-29T22:55:19.981Z,8.13
2023-01-29T22:58:06.750Z,9.45
2023-01-29T23:00:40.837Z,6.20
2023-01-29T23:03:27.792Z,8.13
2023-01-29T23:06:08.754Z,8.23
2023-01-29T23:09:03.740Z,8.32
2023-01-29T23:11:50.746Z,8.10
2023-01-29T23:14:24.857Z,6.93
2023-01-29T23:17:11.771Z,7.80
2023-01-29T23:19:45.853Z,5.88
2023-01-29T23:22:33.804Z,6.57
2023-01-29T23:25:15.048Z,6.57
2023-01-29T23:28:01.775Z,7.30
2023-01-29T23:30:42.856Z,8.50
2023-01-29T23:33:30.741Z,8.15
2023-01-29T23:36:11.792Z,10.50
2023-01-29T23:38:58.760Z,8.10
2023-01-29T23:41:39.785Z,5.35
2023-01-29T23:44:27.831Z,8.38
2023-01-29T23:47:02.863Z,7.03
2023-01-29T23:49:49.780Z,7.63
2023-01-29T23:52:30.783Z,6.80
2023-01-29T23:55:24.797Z,6.50
2023-01-29T23:58:12.769Z,7.88
